Time;durP1;ratioP1;P1;durP2;ratioP2;P2;SDS_P1;SDS_P2;PMS_P1;PMS_P2;Temp;Humidity;BMP_temperature;BMP_pressure;BME280_temperature;BME280_humidity;BME280_pressure;Samples;Min_cycle;Max_cycle;Signal;HPM_P1;HPM_P2
2021/12/04 00:02:25;;;;;;;2.85;2.45;;;11.90;84.80;;;;;;5113923;28;20388;-68
2021/12/04 00:04:53;;;;;;;2.88;2.67;;;11.80;84.90;;;;;;5113767;28;20072;-70
2021/12/04 00:07:21;;;;;;;2.92;2.53;;;11.90;84.90;;;;;;5113495;28;20107;-71
2021/12/04 00:09:50;;;;;;;3.20;2.75;;;11.80;84.80;;;;;;5113739;28;20033;-71
2021/12/04 00:12:16;;;;;;;4.95;2.70;;;11.80;85.10;;;;;;5113412;28;20040;-71
2021/12/04 00:14:43;;;;;;;2.85;2.58;;;11.80;85.00;;;;;;5113467;28;20434;-71
2021/12/04 00:17:09;;;;;;;4.45;2.80;;;11.90;84.90;;;;;;5113693;28;20019;-68
2021/12/04 00:19:35;;;;;;;2.60;2.40;;;11.80;84.90;;;;;;5113546;28;20483;-71
2021/12/04 00:22:01;;;;;;;2.90;2.63;;;11.80;85.10;;;;;;5113740;28;20052;-71
2021/12/04 00:24:27;;;;;;;2.90;2.70;;;11.80;85.10;;;;;;5113471;28;20418;-72
2021/12/04 00:26:53;;;;;;;2.63;2.42;;;11.80;85.10;;;;;;5113154;28;20030;-72
2021/12/04 00:29:20;;;;;;;2.63;2.42;;;11.70;85.30;;;;;;5113963;28;20028;-71
2021/12/04 00:31:51;;;;;;;3.22;2.60;;;11.80;85.30;;;;;;5114054;28;20479;-72
2021/12/04 00:34:19;;;;;;;3.00;2.70;;;11.80;85.30;;;;;;5117629;28;20023;-71
2021/12/04 00:50:16;;;;;;;2.92;2.72;;;11.80;85.40;;;;;;5113578;28;20558;-71
2021/12/04 00:52:41;;;;;;;2.92;2.63;;;11.70;85.50;;;;;;5112027;28;20016;-65
2021/12/04 00:55:07;;;;;;;2.17;2.08;;;11.70;85.70;;;;;;5113290;28;20054;-71
2021/12/04 00:57:33;;;;;;;3.15;2.47;;;11.70;85.70;;;;;;5112786;28;20519;-71
2021/12/04 00:59:59;;;;;;;2.53;2.17;;;11.60;85.70;;;;;;5113298;28;20057;-70
2021/12/04 01:02:26;;;;;;;3.38;2.75;;;11.70;85.90;;;;;;5115698;28;20035;-72
2021/12/04 01:04:52;;;;;;;3.03;2.70;;;11.70;85.80;;;;;;5117032;28;20051;-71
2021/12/04 01:07:20;;;;;;;2.88;2.45;;;11.70;85.70;;;;;;5117060;28;20472;-71
2021/12/04 01:09:46;;;;;;;3.00;2.80;;;11.70;85.90;;;;;;5116933;28;20032;-72
2021/12/04 01:12:11;;;;;;;3.65;2.30;;;11.70;85.80;;;;;;5116407;28;20024;-69
2021/12/04 01:14:37;;;;;;;2.72;2.50;;;11.70;85.80;;;;;;5116580;28;20415;-71
2021/12/04 01:17:04;;;;;;;2.22;2.03;;;11.70;85.80;;;;;;5116964;28;20526;-70
2021/12/04 01:19:30;;;;;;;2.30;2.10;;;11.70;86.00;;;;;;5116791;28;20019;-72
2021/12/04 01:21:56;;;;;;;2.30;2.10;;;11.70;85.90;;;;;;5116828;28;20023;-71
2021/12/04 01:24:23;;;;;;;2.40;2.20;;;11.70;85.90;;;;;;5116594;28;20205;-71
2021/12/04 01:26:49;;;;;;;2.05;1.85;;;11.70;85.90;;;;;;5116459;28;20016;-71
2021/12/04 01:29:16;;;;;;;2.10;1.90;;;11.60;86.10;;;;;;5115195;28;20444;-71
2021/12/04 01:31:42;;;;;;;2.00;1.90;;;11.70;86.10;;;;;;5116679;28;20469;-70
2021/12/04 01:34:08;;;;;;;1.80;1.70;;;11.70;86.10;;;;;;5116656;28;20020;-72
2021/12/04 01:36:34;;;;;;;1.98;1.83;;;11.70;86.10;;;;;;5116494;28;20027;-70
2021/12/04 01:39:00;;;;;;;2.40;2.20;;;11.70;86.10;;;;;;5116407;28;20388;-68
2021/12/04 01:41:26;;;;;;;1.98;1.88;;;11.70;86.10;;;;;;5116106;28;20027;-72
2021/12/04 01:43:51;;;;;;;3.70;2.00;;;11.70;86.10;;;;;;5116148;28;20043;-71
2021/12/04 01:46:17;;;;;;;1.83;1.73;;;11.70;86.20;;;;;;5116290;28;20015;-72
2021/12/04 01:48:43;;;;;;;2.20;2.00;;;11.60;86.20;;;;;;5110183;28;20016;-72
2021/12/04 01:51:08;;;;;;;2.30;1.75;;;11.60;86.20;;;;;;5095774;28;20024;-72
2021/12/04 01:53:35;;;;;;;1.95;1.85;;;11.70;86.20;;;;;;5095166;28;20051;-69
2021/12/04 01:56:01;;;;;;;2.35;2.15;;;11.60;86.30;;;;;;5095117;28;20032;-72
2021/12/04 01:58:28;;;;;;;2.15;1.98;;;11.60;86.30;;;;;;5096208;28;20024;-66
2021/12/04 02:00:54;;;;;;;2.55;2.03;;;11.60;86.30;;;;;;5096006;28;20082;-66
2021/12/04 02:03:20;;;;;;;2.58;2.13;;;11.60;86.30;;;;;;5095495;28;20028;-70
2021/12/04 02:05:47;;;;;;;2.00;1.80;;;11.60;86.40;;;;;;5094128;28;20020;-65
2021/12/04 02:08:15;;;;;;;1.88;1.77;;;11.60;86.50;;;;;;5095352;28;20607;-69
2021/12/04 02:10:42;;;;;;;3.28;2.13;;;11.60;86.40;;;;;;5095264;28;20048;-68
2021/12/04 02:13:08;;;;;;;2.05;1.90;;;11.60;86.50;;;;;;5094796;28;20031;-68
2021/12/04 02:15:33;;;;;;;1.98;1.88;;;11.60;86.50;;;;;;5095281;28;20027;-67
2021/12/04 02:18:01;;;;;;;2.20;1.90;;;11.60;86.60;;;;;;5095194;28;20076;-71
2021/12/04 02:20:28;;;;;;;2.35;2.15;;;11.60;86.60;;;;;;5095283;28;20026;-66
2021/12/04 02:22:55;;;;;;;2.40;2.20;;;11.60;86.70;;;;;;5094834;28;20016;-71
2021/12/04 02:25:21;;;;;;;2.55;2.10;;;11.60;86.60;;;;;;5095108;28;20024;-67
2021/12/04 02:27:47;;;;;;;2.17;2.08;;;11.60;86.70;;;;;;5094981;28;20016;-71
2021/12/04 02:30:16;;;;;;;2.30;2.10;;;11.60;86.70;;;;;;5095062;28;20024;-67
2021/12/04 02:32:42;;;;;;;2.83;2.53;;;11.60;86.70;;;;;;5095096;28;20021;-63
2021/12/04 02:35:09;;;;;;;2.80;2.05;;;11.60;86.80;;;;;;5094837;28;20032;-64
2021/12/04 02:37:37;;;;;;;2.30;2.15;;;11.60;86.80;;;;;;5094490;28;20019;-68
2021/12/04 02:40:05;;;;;;;2.63;2.42;;;11.60;87.00;;;;;;5094670;28;20024;-71
2021/12/04 02:42:31;;;;;;;3.40;3.10;;;11.60;87.00;;;;;;5094820;28;20028;-64
2021/12/04 02:45:01;;;;;;;3.75;3.45;;;11.50;87.10;;;;;;5094452;28;20028;-65
2021/12/04 02:47:28;;;;;;;5.72;3.15;;;11.60;87.00;;;;;;5094786;28;20027;-71
2021/12/04 02:49:55;;;;;;;3.72;3.17;;;11.60;86.90;;;;;;5094618;28;20044;-68
2021/12/04 02:52:22;;;;;;;3.33;2.92;;;11.60;87.10;;;;;;5094340;28;20099;-72
2021/12/04 02:54:49;;;;;;;3.38;3.10;;;11.60;87.20;;;;;;5094396;28;20469;-71
2021/12/04 02:57:16;;;;;;;4.45;3.22;;;11.60;87.20;;;;;;5094745;28;20024;-71
2021/12/04 02:59:42;;;;;;;3.90;3.50;;;11.60;87.30;;;;;;5094340;28;20031;-71
2021/12/04 03:02:17;;;;;;;3.88;3.10;;;11.50;87.30;;;;;;5094537;28;20024;-71
2021/12/04 03:04:44;;;;;;;3.55;3.35;;;11.60;87.30;;;;;;5094019;28;20055;-71
2021/12/04 03:07:10;;;;;;;3.95;3.47;;;11.50;87.40;;;;;;5094118;28;20024;-71
2021/12/04 03:09:36;;;;;;;3.78;3.20;;;11.50;87.30;;;;;;5094460;28;20020;-71
2021/12/04 03:12:03;;;;;;;3.65;3.10;;;11.60;87.20;;;;;;5092768;28;20024;-71
2021/12/04 03:14:29;;;;;;;3.63;3.33;;;11.60;87.40;;;;;;5094199;28;20028;-71
2021/12/04 03:16:54;;;;;;;4.00;3.70;;;11.60;87.30;;;;;;5093940;28;20032;-71
2021/12/04 03:19:20;;;;;;;4.65;3.53;;;11.50;87.40;;;;;;5094431;28;20009;-71
2021/12/04 03:21:46;;;;;;;3.45;3.15;;;11.50;87.50;;;;;;5093863;28;20457;-68
2021/12/04 03:24:14;;;;;;;3.92;3.22;;;11.50;87.50;;;;;;5093760;28;20126;-63
2021/12/04 03:26:40;;;;;;;3.92;3.63;;;11.50;87.60;;;;;;5094073;28;20018;-68
2021/12/04 03:29:11;;;;;;;5.55;3.80;;;11.50;87.50;;;;;;5093964;28;20102;-61
2021/12/04 03:42:27;;;;;;;4.55;4.15;;;11.50;87.80;;;;;;5094186;28;20097;-62
2021/12/04 03:44:52;;;;;;;4.57;4.18;;;11.50;87.70;;;;;;5093641;28;20040;-62
2021/12/04 03:47:20;;;;;;;4.30;3.92;;;11.50;88.10;;;;;;5093536;28;20016;-64
2021/12/04 03:49:47;;;;;;;4.57;4.25;;;11.40;88.00;;;;;;5093397;28;20046;-61
2021/12/04 03:52:13;;;;;;;5.45;4.95;;;11.40;87.90;;;;;;5093618;28;20021;-62
2021/12/04 03:54:38;;;;;;;4.40;4.10;;;11.40;88.10;;;;;;5093416;28;20013;-63
2021/12/04 03:57:05;;;;;;;5.55;4.40;;;11.40;88.10;;;;;;5093201;28;20035;-62
2021/12/04 03:59:35;;;;;;;4.38;3.97;;;11.40;88.10;;;;;;5093717;28;20020;-61
2021/12/04 04:02:03;;;;;;;4.00;3.70;;;11.40;88.20;;;;;;5093392;28;20020;-62
2021/12/04 04:04:28;;;;;;;3.60;3.38;;;11.40;87.90;;;;;;5093188;28;20118;-62
2021/12/04 04:06:54;;;;;;;3.97;3.58;;;11.40;87.90;;;;;;5093295;28;20516;-63
2021/12/04 04:09:20;;;;;;;3.47;3.25;;;11.40;88.10;;;;;;5093330;28;20028;-70
2021/12/04 04:11:47;;;;;;;3.38;3.17;;;11.40;88.10;;;;;;5093146;28;20016;-66
2021/12/04 04:14:14;;;;;;;3.72;3.42;;;11.40;88.00;;;;;;5093373;28;20116;-71
2021/12/04 04:16:40;;;;;;;3.70;3.40;;;11.40;88.00;;;;;;5093397;28;20020;-71
2021/12/04 04:19:08;;;;;;;3.55;3.25;;;11.40;87.90;;;;;;5093057;28;20035;-71
2021/12/04 04:21:39;;;;;;;3.53;3.22;;;11.40;87.90;;;;;;5093059;28;20028;-70
2021/12/04 04:24:06;;;;;;;3.70;3.40;;;11.40;88.00;;;;;;5093205;28;20031;-68
2021/12/04 04:26:31;;;;;;;3.80;3.50;;;11.40;88.00;;;;;;5093176;28;20591;-71
2021/12/04 04:28:57;;;;;;;3.90;3.60;;;11.40;87.90;;;;;;5093207;28;20125;-68
2021/12/04 04:31:23;;;;;;;3.60;3.20;;;11.40;88.00;;;;;;5093291;28;20393;-71
2021/12/04 04:33:48;;;;;;;3.92;3.63;;;11.40;88.10;;;;;;5092645;28;20085;-71
2021/12/04 04:36:34;;;;;;;3.95;3.65;;;11.40;88.30;;;;;;5095225;28;20046;-69
2021/12/04 04:39:19;;;;;;;4.00;3.60;;;11.40;88.30;;;;;;5097250;28;20027;-72
2021/12/04 05:00:51;;;;;;;6.63;6.03;;;11.40;88.00;;;;;;5097031;28;20473;-61
2021/12/04 05:12:16;;;;;;;7.75;6.95;;;11.40;88.00;;;;;;5096544;28;20031;-71
2021/12/04 05:14:21;;;;;;;8.90;7.53;;;11.40;88.10;;;;;;5093208;28;20042;-71
2021/12/04 05:16:51;;;;;;;10.40;7.97;;;11.30;88.10;;;;;;5096230;28;20024;-67
2021/12/04 05:19:28;;;;;;;9.23;7.93;;;11.30;88.10;;;;;;5096484;28;20032;-65
2021/12/04 05:21:54;;;;;;;10.23;8.88;;;11.30;88.10;;;;;;5096252;28;20368;-71
2021/12/04 05:24:20;;;;;;;9.52;8.60;;;11.30;88.30;;;;;;5096145;28;20107;-71
2021/12/04 05:26:46;;;;;;;11.15;9.05;;;11.30;88.40;;;;;;5096274;28;20032;-71
2021/12/04 05:29:12;;;;;;;11.15;8.88;;;11.30;88.50;;;;;;5096303;28;20020;-69
2021/12/04 05:31:37;;;;;;;9.77;8.57;;;11.30;88.70;;;;;;5095965;28;20025;-71
2021/12/04 05:34:03;;;;;;;10.38;8.40;;;11.30;88.80;;;;;;5095978;28;20097;-70
2021/12/04 05:36:28;;;;;;;10.55;9.45;;;11.30;88.90;;;;;;5096163;28;20416;-70
2021/12/04 05:38:54;;;;;;;9.55;8.65;;;11.30;89.00;;;;;;5095948;28;20024;-71
2021/12/04 05:41:20;;;;;;;9.98;8.98;;;11.30;89.00;;;;;;5095879;28;20029;-70
2021/12/04 05:43:47;;;;;;;10.25;9.15;;;11.30;88.80;;;;;;5095869;28;20036;-71
2021/12/04 05:51:32;;;;;;;9.25;8.20;;;11.30;89.00;;;;;;5095973;28;20103;-70
2021/12/04 05:56:17;;;;;;;9.98;8.98;;;11.30;89.10;;;;;;5095821;28;20024;-71
2021/12/04 05:58:42;;;;;;;10.52;8.75;;;11.30;89.20;;;;;;5095631;28;20030;-71
2021/12/04 06:01:08;;;;;;;8.77;7.97;;;11.20;89.20;;;;;;5089089;28;20047;-71
2021/12/04 06:03:34;;;;;;;11.35;8.98;;;11.20;89.20;;;;;;5075184;28;20020;-71
2021/12/04 06:06:00;;;;;;;11.15;8.70;;;11.20;89.80;;;;;;5074823;28;20028;-70
2021/12/04 06:08:26;;;;;;;9.55;8.57;;;11.20;89.30;;;;;;5074937;28;20029;-67
2021/12/04 06:10:52;;;;;;;10.50;9.38;;;11.20;89.10;;;;;;5074970;28;20028;-70
2021/12/04 06:13:19;;;;;;;9.70;8.65;;;11.20;89.00;;;;;;5075189;28;20500;-70
2021/12/04 06:15:44;;;;;;;9.68;8.68;;;11.30;89.00;;;;;;5074761;28;20033;-70
2021/12/04 06:18:11;;;;;;;9.98;8.98;;;11.20;89.00;;;;;;5075122;28;20028;-67
2021/12/04 06:23:21;;;;;;;11.85;8.60;;;11.20;89.00;;;;;;5074838;28;20097;-71
2021/12/04 06:25:47;;;;;;;9.77;8.77;;;11.20;89.00;;;;;;5083626;28;20479;-69
2021/12/04 06:28:13;;;;;;;10.77;9.52;;;11.20;89.10;;;;;;5076507;28;20048;-70
2021/12/04 06:30:41;;;;;;;9.45;8.48;;;11.20;89.20;;;;;;5079511;28;20035;-70
2021/12/04 06:33:09;;;;;;;9.75;8.75;;;11.20;89.20;;;;;;5090581;28;20055;-70
2021/12/04 06:35:39;;;;;;;9.77;8.88;;;11.30;89.10;;;;;;5093264;28;20047;-69
2021/12/04 06:38:05;;;;;;;10.80;9.70;;;11.20;89.00;;;;;;5094204;28;20024;-71
2021/12/04 06:40:31;;;;;;;10.68;9.63;;;11.20;89.20;;;;;;5094899;28;20078;-71
2021/12/04 06:42:59;;;;;;;11.48;9.75;;;11.20;89.20;;;;;;5094751;28;20439;-71
2021/12/04 06:45:28;;;;;;;10.50;9.40;;;11.20;89.30;;;;;;5087819;28;20473;-71
2021/12/04 06:48:16;;;;;;;11.93;10.82;;;11.20;89.50;;;;;;5086422;28;20430;-70
2021/12/04 06:51:27;;;;;;;10.85;9.50;;;11.10;89.40;;;;;;5085161;28;20071;-71
2021/12/04 06:54:06;;;;;;;10.70;9.60;;;11.20;89.50;;;;;;5082985;28;20028;-65
2021/12/04 06:56:24;;;;;;;10.65;9.55;;;11.20;89.30;;;;;;5076198;28;20035;-71
2021/12/04 06:58:52;;;;;;;11.27;10.13;;;11.20;89.40;;;;;;5092157;28;20134;-71
2021/12/04 07:01:17;;;;;;;11.55;9.80;;;11.20;89.30;;;;;;5088530;28;20491;-70
2021/12/04 07:03:43;;;;;;;11.52;10.43;;;11.20;89.30;;;;;;5084693;28;20020;-71
2021/12/04 07:06:09;;;;;;;10.55;9.55;;;11.20;89.40;;;;;;5084677;28;20017;-72
2021/12/04 07:08:35;;;;;;;12.75;11.25;;;11.20;89.50;;;;;;5072581;28;20063;-70
2021/12/04 07:11:04;;;;;;;12.00;10.80;;;11.20;89.50;;;;;;5073588;28;20051;-69
2021/12/04 07:13:30;;;;;;;11.90;10.77;;;11.20;89.60;;;;;;5073586;28;20517;-71
2021/12/04 07:16:06;;;;;;;11.95;10.82;;;11.20;89.50;;;;;;5073054;28;20056;-68
2021/12/04 07:18:34;;;;;;;12.98;11.65;;;11.10;89.70;;;;;;5079009;28;20024;-71
2021/12/04 07:21:00;;;;;;;15.27;12.82;;;11.10;89.70;;;;;;5075776;28;20123;-69
2021/12/04 07:23:26;;;;;;;13.45;12.10;;;11.20;89.70;;;;;;5073788;28;20116;-68
2021/12/04 07:25:52;;;;;;;15.90;14.20;;;11.20;89.80;;;;;;5073636;28;20024;-65
2021/12/04 07:28:17;;;;;;;15.30;13.63;;;11.10;89.90;;;;;;5085720;28;20035;-64
2021/12/04 07:30:43;;;;;;;14.30;12.90;;;11.10;89.80;;;;;;5088450;28;20499;-69
2021/12/04 07:33:09;;;;;;;13.20;11.90;;;11.10;89.80;;;;;;5084629;28;20380;-66
2021/12/04 07:35:35;;;;;;;13.68;12.30;;;11.20;89.80;;;;;;5093378;28;20458;-63
2021/12/04 07:38:00;;;;;;;15.20;13.70;;;11.20;90.00;;;;;;5085859;28;20513;-68
2021/12/04 07:40:26;;;;;;;13.80;12.40;;;11.20;90.00;;;;;;5093379;28;20504;-69
2021/12/04 07:42:52;;;;;;;15.05;13.50;;;11.10;90.00;;;;;;5079041;28;20025;-64
2021/12/04 07:45:18;;;;;;;17.13;12.98;;;11.10;90.00;;;;;;5072779;28;20042;-68
2021/12/04 07:47:43;;;;;;;15.20;12.60;;;11.20;90.00;;;;;;5073100;28;20055;-69
2021/12/04 07:50:10;;;;;;;14.90;12.60;;;9.90;91.90;;;;;;5090826;28;20070;-67
2021/12/04 07:52:37;;;;;;;13.57;12.10;;;9.30;93.70;;;;;;5093312;28;20028;-64
2021/12/04 07:55:03;;;;;;;13.07;11.68;;;9.10;94.40;;;;;;5082515;28;20024;-68
2021/12/04 07:57:29;;;;;;;13.43;11.07;;;8.80;95.10;;;;;;5080110;28;20020;-66
2021/12/04 07:59:54;;;;;;;15.00;10.90;;;8.70;95.40;;;;;;5092999;28;20032;-68
2021/12/04 08:02:20;;;;;;;13.73;11.70;;;8.70;95.40;;;;;;5091398;28;20020;-69
2021/12/04 08:04:46;;;;;;;14.50;10.95;;;8.80;95.80;;;;;;5076726;28;20384;-68
2021/12/04 08:07:11;;;;;;;14.20;11.73;;;9.50;94.50;;;;;;5090844;28;20431;-70
2021/12/04 08:09:37;;;;;;;17.88;11.63;;;9.90;93.50;;;;;;5092642;28;20020;-70
2021/12/04 08:12:03;;;;;;;13.07;11.35;;;10.20;92.70;;;;;;5085558;28;20060;-71
2021/12/04 08:14:29;;;;;;;12.43;11.13;;;10.50;92.20;;;;;;5072333;28;20082;-69
2021/12/04 08:16:54;;;;;;;13.23;10.85;;;10.70;91.80;;;;;;5076357;28;20020;-70
2021/12/04 08:19:20;;;;;;;13.00;11.05;;;10.80;91.50;;;;;;5089171;28;20382;-69
2021/12/04 08:21:45;;;;;;;11.65;9.45;;;10.90;91.30;;;;;;5087245;28;20036;-71
2021/12/04 08:24:11;;;;;;;10.65;9.55;;;11.00;91.10;;;;;;5077722;28;20134;-70
2021/12/04 08:26:38;;;;;;;12.93;10.68;;;11.00;90.90;;;;;;5079519;28;20028;-70
2021/12/04 08:29:05;;;;;;;11.95;9.05;;;11.10;90.80;;;;;;5089934;28;20031;-69
2021/12/04 08:31:30;;;;;;;10.80;9.70;;;11.10;90.50;;;;;;5085116;28;20098;-70
2021/12/04 08:33:56;;;;;;;10.50;9.40;;;11.10;90.40;;;;;;5073102;28;20086;-68
2021/12/04 08:36:22;;;;;;;11.57;10.43;;;11.10;90.60;;;;;;5072739;28;20028;-70
2021/12/04 08:38:49;;;;;;;11.30;9.88;;;11.10;90.60;;;;;;5076996;28;20024;-71
2021/12/04 08:41:16;;;;;;;12.30;9.82;;;11.20;90.60;;;;;;5073620;28;20037;-71
2021/12/04 08:43:42;;;;;;;9.90;8.80;;;11.10;90.70;;;;;;5072471;28;20040;-71
2021/12/04 08:46:08;;;;;;;9.82;8.50;;;11.20;90.70;;;;;;5072911;28;20025;-71
2021/12/04 08:48:33;;;;;;;9.52;7.88;;;11.30;90.30;;;;;;5072425;28;20063;-70
2021/12/04 08:51:00;;;;;;;8.57;7.28;;;11.20;90.40;;;;;;5072515;28;20031;-70
2021/12/04 08:53:27;;;;;;;10.40;8.27;;;11.30;90.90;;;;;;5073219;28;20109;-67
2021/12/04 08:55:52;;;;;;;11.18;8.35;;;11.30;90.50;;;;;;5072267;28;20485;-67
2021/12/04 08:58:18;;;;;;;12.10;8.38;;;11.30;90.30;;;;;;5072507;28;20082;-63
2021/12/04 09:00:57;;;;;;;10.82;9.52;;;11.40;90.20;;;;;;5074131;28;20190;-70
2021/12/04 09:03:34;;;;;;;13.25;11.48;;;11.40;90.10;;;;;;5078457;28;20032;-70
2021/12/04 09:06:02;;;;;;;11.13;9.95;;;11.40;90.20;;;;;;5080189;28;20008;-69
2021/12/04 09:08:29;;;;;;;11.77;9.80;;;11.40;90.10;;;;;;5074253;28;20427;-68
2021/12/04 09:10:57;;;;;;;10.15;8.57;;;11.40;90.10;;;;;;5076126;28;20020;-62
2021/12/04 09:13:24;;;;;;;9.57;7.95;;;11.40;90.10;;;;;;5079151;28;20443;-63
2021/12/04 09:15:50;;;;;;;8.68;7.78;;;11.40;90.20;;;;;;5079073;28;20029;-62
2021/12/04 09:18:16;;;;;;;9.02;8.13;;;11.40;90.20;;;;;;5082896;28;20016;-64
2021/12/04 09:20:42;;;;;;;9.82;8.32;;;11.50;90.00;;;;;;5091683;28;20027;-61
2021/12/04 09:23:14;;;;;;;11.45;8.80;;;11.50;90.00;;;;;;5090224;28;20038;-63
2021/12/04 09:25:44;;;;;;;9.02;7.90;;;11.50;90.00;;;;;;5097959;28;20545;-70
2021/12/04 09:28:20;;;;;;;10.32;7.32;;;11.50;90.00;;;;;;5101519;28;20030;-66
2021/12/04 10:06:19;;;;;;;8.10;3.70;;;12.30;89.40;;;;;;5036879;28;20052;-70
2021/12/04 10:15:09;;;;;;;12.57;9.20;;;12.30;88.30;;;;;;5092869;28;20504;-70
2021/12/04 10:17:08;;;;;;;13.15;9.90;;;12.40;88.40;;;;;;5072509;28;20848;-67
2021/12/04 10:33:27;;;;;;;15.65;10.93;;;12.50;88.00;;;;;;5088553;28;20047;-62
2021/12/04 10:35:53;;;;;;;12.30;9.55;;;12.50;87.80;;;;;;5089148;28;20453;-62
2021/12/04 10:38:23;;;;;;;16.20;10.57;;;12.50;87.80;;;;;;5078616;28;20032;-62
2021/12/04 10:40:50;;;;;;;14.98;11.02;;;12.50;87.90;;;;;;5084292;28;20068;-70
2021/12/04 10:43:22;;;;;;;14.75;11.43;;;12.50;88.10;;;;;;5079083;28;20108;-65
2021/12/04 10:45:56;;;;;;;14.13;11.25;;;12.50;88.10;;;;;;5076160;28;20028;-64
2021/12/04 10:48:26;;;;;;;13.88;9.95;;;12.40;88.40;;;;;;5078351;28;20043;-67
2021/12/04 10:51:09;;;;;;;12.13;9.10;;;12.50;88.80;;;;;;5080679;28;20078;-64
2021/12/04 10:53:45;;;;;;;12.70;9.38;;;12.50;88.80;;;;;;5086101;28;20031;-69
2021/12/04 10:56:24;;;;;;;9.10;5.55;;;12.60;89.00;;;;;;5079408;28;20444;-62
2021/12/04 11:07:37;;;;;;;12.38;8.52;;;12.90;91.40;;;;;;5072078;28;20040;-65
2021/12/04 11:40:27;;;;;;;13.57;7.28;;;13.00;93.20;;;;;;5086290;28;20047;-68
2021/12/04 11:42:59;;;;;;;8.00;5.95;;;12.90;92.90;;;;;;5081569;28;20020;-62
2021/12/04 11:45:33;;;;;;;9.27;6.95;;;12.80;91.70;;;;;;5081381;28;20140;-66
2021/12/04 11:48:03;;;;;;;8.95;6.35;;;12.90;92.30;;;;;;5089575;28;20024;-66
2021/12/04 11:50:28;;;;;;;11.40;6.88;;;12.90;92.60;;;;;;5088881;28;20027;-67
2021/12/04 11:52:57;;;;;;;8.20;6.65;;;12.30;92.30;;;;;;5082351;28;20021;-65
2021/12/04 11:55:25;;;;;;;7.38;6.15;;;11.70;92.10;;;;;;5074774;28;20046;-67
2021/12/04 11:57:52;;;;;;;8.43;6.97;;;11.40;93.40;;;;;;5087597;28;20020;-60
2021/12/04 12:00:31;;;;;;;10.23;7.28;;;10.80;93.70;;;;;;5083720;28;20035;-60
2021/12/04 12:03:33;;;;;;;10.75;6.80;;;11.30;95.10;;;;;;5089245;28;20538;-61
2021/12/04 12:06:03;;;;;;;14.38;8.18;;;11.70;93.90;;;;;;4998340;28;20045;-60
2021/12/04 12:08:29;;;;;;;15.05;8.93;;;11.60;93.10;;;;;;5075121;28;20060;-61
2021/12/04 12:10:59;;;;;;;14.55;9.10;;;10.60;94.40;;;;;;5092716;28;20116;-61
2021/12/04 12:13:33;;;;;;;14.55;9.48;;;10.10;95.80;;;;;;5086481;28;20064;-60
2021/12/04 12:16:14;;;;;;;18.85;10.60;;;10.10;96.10;;;;;;5073036;28;20474;-61
2021/12/04 12:19:01;;;;;;;22.88;10.45;;;9.90;96.60;;;;;;5085141;28;20024;-61
2021/12/04 12:21:41;;;;;;;16.65;9.02;;;9.90;97.50;;;;;;5083794;28;20091;-62
2021/12/04 12:38:57;;;;;;;22.73;12.18;;;12.20;92.50;;;;;;5088051;28;20393;-63
2021/12/04 12:41:32;;;;;;;27.60;14.30;;;12.30;92.00;;;;;;5069015;28;20049;-64
2021/12/04 12:43:57;;;;;;;40.15;24.90;;;12.30;91.80;;;;;;5083871;28;20044;-60
2021/12/04 12:46:37;;;;;;;44.47;25.02;;;12.40;91.70;;;;;;5074224;28;20028;-60
2021/12/04 12:49:05;;;;;;;53.42;30.60;;;12.50;91.20;;;;;;5077650;28;20147;-72
2021/12/04 12:51:35;;;;;;;37.92;21.98;;;12.50;91.50;;;;;;5070593;28;20028;-62
2021/12/04 12:54:04;;;;;;;49.67;30.88;;;12.50;91.10;;;;;;5078176;28;20024;-60
2021/12/04 12:56:34;;;;;;;41.58;23.48;;;12.50;91.40;;;;;;5082880;28;20028;-60
2021/12/04 12:59:08;;;;;;;31.15;17.55;;;12.70;91.50;;;;;;5074560;28;20028;-62
2021/12/04 13:13:31;;;;;;;21.35;10.48;;;12.80;91.20;;;;;;5075579;28;20052;-61
2021/12/04 13:16:04;;;;;;;20.17;9.95;;;12.70;90.70;;;;;;5080552;28;20016;-61
2021/12/04 13:18:31;;;;;;;16.95;7.05;;;12.70;90.60;;;;;;5076105;28;20028;-60
2021/12/04 13:21:15;;;;;;;14.55;6.65;;;12.70;90.50;;;;;;5076924;28;20013;-60
2021/12/04 13:23:46;;;;;;;10.52;4.97;;;12.70;90.50;;;;;;5076390;28;20040;-61
2021/12/04 13:26:13;;;;;;;8.50;4.93;;;12.70;90.60;;;;;;5087081;28;20016;-71
2021/12/04 13:28:46;;;;;;;10.55;4.90;;;12.70;90.70;;;;;;5079513;28;20048;-63
2021/12/04 13:31:12;;;;;;;6.30;3.08;;;12.80;90.80;;;;;;5083296;28;20020;-69
2021/12/04 13:33:43;;;;;;;8.90;4.72;;;12.80;90.70;;;;;;5089905;28;20024;-63
2021/12/04 13:36:13;;;;;;;10.07;3.72;;;12.90;90.90;;;;;;5095495;28;20039;-66
2021/12/04 13:38:39;;;;;;;8.77;3.58;;;13.00;91.00;;;;;;5101232;28;20023;-61
2021/12/04 13:41:05;;;;;;;11.85;3.95;;;13.00;91.00;;;;;;5100722;28;20465;-64
2021/12/04 13:43:30;;;;;;;6.15;3.35;;;13.10;91.20;;;;;;5104107;28;20445;-67
2021/12/04 13:45:58;;;;;;;3.92;2.33;;;13.20;91.10;;;;;;5090500;28;20047;-64
2021/12/04 13:48:24;;;;;;;6.15;2.45;;;13.20;90.60;;;;;;5083357;28;20024;-65
2021/12/04 13:50:50;;;;;;;6.68;2.35;;;13.20;90.50;;;;;;5087777;28;20130;-66
2021/12/04 13:53:29;;;;;;;8.32;2.40;;;13.20;90.50;;;;;;5094327;28;20036;-65
2021/12/04 13:56:10;;;;;;;6.80;2.03;;;13.20;90.50;;;;;;5093322;28;20028;-68
2021/12/04 13:58:44;;;;;;;5.22;2.28;;;13.20;90.40;;;;;;5094625;28;20103;-62
2021/12/04 14:01:09;;;;;;;4.88;1.63;;;13.30;90.50;;;;;;5098400;28;20378;-67
2021/12/04 14:03:37;;;;;;;7.13;1.85;;;13.30;90.50;;;;;;5090849;28;20040;-64
2021/12/04 14:06:08;;;;;;;5.20;1.70;;;13.30;90.30;;;;;;5084536;28;20026;-63
2021/12/04 14:08:33;;;;;;;6.05;1.52;;;13.30;90.30;;;;;;5097963;28;20024;-65
2021/12/04 14:10:59;;;;;;;7.20;1.70;;;13.30;90.40;;;;;;5098418;28;20066;-64
2021/12/04 14:13:25;;;;;;;4.53;1.60;;;13.40;90.20;;;;;;5102707;28;20045;-60
2021/12/04 14:15:55;;;;;;;6.25;1.63;;;13.30;90.00;;;;;;5099368;28;20420;-62
2021/12/04 14:18:23;;;;;;;3.80;1.20;;;13.30;90.10;;;;;;5098846;28;20469;-60
2021/12/04 14:20:56;;;;;;;8.15;1.42;;;13.40;90.30;;;;;;5092584;28;20527;-65
2021/12/04 14:23:27;;;;;;;3.33;1.42;;;13.50;90.20;;;;;;5097782;28;20023;-65
2021/12/04 14:25:55;;;;;;;5.90;1.92;;;13.40;89.60;;;;;;5080930;28;20028;-67
2021/12/04 14:28:29;;;;;;;6.47;1.50;;;13.40;89.60;;;;;;5090076;28;20113;-70
2021/12/04 14:30:55;;;;;;;6.57;1.90;;;13.40;88.50;;;;;;5102492;28;20016;-67
2021/12/04 14:33:24;;;;;;;5.60;1.85;;;13.30;88.60;;;;;;5098071;28;20042;-59
2021/12/04 14:35:52;;;;;;;4.95;1.63;;;13.30;88.30;;;;;;5098972;28;20035;-60
2021/12/04 14:38:25;;;;;;;9.00;1.83;;;13.40;88.60;;;;;;5097625;28;20059;-59
2021/12/04 14:41:06;;;;;;;4.93;1.70;;;13.30;89.10;;;;;;5099762;28;20032;-67
2021/12/04 14:43:36;;;;;;;6.90;1.65;;;13.30;87.90;;;;;;5097721;28;20036;-60
2021/12/04 14:46:05;;;;;;;6.97;2.22;;;13.40;89.40;;;;;;5097426;28;20520;-62
2021/12/04 14:48:35;;;;;;;9.00;2.22;;;13.40;88.60;;;;;;5088282;27;20021;-62
2021/12/04 14:51:17;;;;;;;9.70;1.95;;;13.40;87.70;;;;;;5086874;28;20103;-60
2021/12/04 14:54:02;;;;;;;6.80;2.78;;;13.40;87.40;;;;;;5078971;28;20020;-60
2021/12/04 14:56:31;;;;;;;11.45;2.83;;;13.40;88.90;;;;;;5089524;28;20492;-61
2021/12/04 14:58:56;;;;;;;6.82;1.80;;;13.40;89.20;;;;;;5085788;28;20021;-60
2021/12/04 15:01:26;;;;;;;10.32;2.50;;;13.40;89.10;;;;;;5097308;28;20040;-62
2021/12/04 15:04:00;;;;;;;7.72;2.50;;;13.40;87.20;;;;;;5106265;28;20126;-63
2021/12/04 15:06:27;;;;;;;7.82;2.35;;;13.40;86.30;;;;;;5086905;28;20032;-60
2021/12/04 15:09:08;;;;;;;10.02;2.33;;;13.40;85.70;;;;;;5093054;28;20073;-61
2021/12/04 15:11:36;;;;;;;11.30;2.50;;;13.40;85.30;;;;;;5086505;28;20423;-62
2021/12/04 15:14:13;;;;;;;11.30;2.55;;;13.40;86.30;;;;;;5082181;28;20039;-62
2021/12/04 15:16:48;;;;;;;6.93;1.98;;;13.40;86.10;;;;;;5092698;28;20145;-60
2021/12/04 15:19:25;;;;;;;11.85;2.75;;;13.40;86.20;;;;;;5092628;28;20073;-60
2021/12/04 15:21:59;;;;;;;7.35;1.77;;;13.40;85.70;;;;;;5081981;28;20024;-59
2021/12/04 15:24:32;;;;;;;9.68;1.95;;;13.50;85.60;;;;;;5103502;28;20028;-58
2021/12/04 15:27:10;;;;;;;10.68;2.60;;;13.40;83.90;;;;;;5076349;28;20099;-59
2021/12/04 15:29:37;;;;;;;12.25;2.42;;;13.30;83.30;;;;;;5080837;28;20028;-64
2021/12/04 15:32:09;;;;;;;11.48;2.50;;;13.30;81.50;;;;;;5092664;28;20552;-60
2021/12/04 15:34:46;;;;;;;10.80;3.08;;;13.30;81.20;;;;;;5091799;28;20073;-65
2021/12/04 15:37:12;;;;;;;10.02;2.53;;;13.10;81.80;;;;;;5087216;28;20020;-64
2021/12/04 15:39:46;;;;;;;7.35;2.50;;;13.10;82.20;;;;;;5080629;28;20024;-68
2021/12/04 15:44:54;;;;;;;14.52;4.35;;;13.10;82.40;;;;;;5080033;28;20063;-69
2021/12/04 15:53:13;;;;;;;39.17;13.35;;;13.00;82.00;;;;;;5089621;28;20062;-70
2021/12/04 15:55:51;;;;;;;51.75;19.65;;;13.00;81.10;;;;;;5094453;28;20026;-66
2021/12/04 15:58:19;;;;;;;47.85;17.83;;;12.90;81.30;;;;;;5091529;28;20020;-71
2021/12/04 16:00:54;;;;;;;49.38;16.70;;;12.90;81.00;;;;;;5088536;28;20055;-67